Time;durP1;ratioP1;P1;durP2;ratioP2;P2;SDS_P1;SDS_P2;PMS_P1;PMS_P2;Temp;Humidity;BMP_temperature;BMP_pressure;BME280_temperature;BME280_humidity;BME280_pressure;Samples;Min_cycle;Max_cycle;Signal;HPM_P1;HPM_P2
2022/05/14 00:02:21;;;;;;;;;1.00;1.00;;;;;22.25;45.69;98670.28;4855956;28;102249;-83
2022/05/14 00:04:48;;;;;;;;;2.00;2.00;;;;;22.24;46.10;98677.72;4835376;28;104462;-83
2022/05/14 00:07:15;;;;;;;;;0.67;0.67;;;;;22.24;45.62;98677.72;4837551;28;102280;-82
2022/05/14 00:09:42;;;;;;;;;1.67;1.67;;;;;22.24;45.49;98672.22;4836047;28;104326;-83
2022/05/14 00:14:55;;;;;;;;;1.00;0.67;;;;;22.24;45.71;98674.97;4855041;28;102658;-83
2022/05/14 00:17:22;;;;;;;;;2.33;1.33;;;;;22.23;45.86;98678.84;4833764;28;102377;-83
2022/05/14 00:19:49;;;;;;;;;1.67;1.67;;;;;22.23;45.86;98684.38;4857616;28;104533;-83
2022/05/14 00:22:16;;;;;;;;;1.67;1.00;;;;;22.22;46.03;98692.88;4849390;28;102236;-83
2022/05/14 00:24:43;;;;;;;;;2.00;2.00;;;;;22.21;45.67;98691.22;4851299;28;102345;-83
2022/05/14 00:27:10;;;;;;;;;1.00;1.00;;;;;22.21;45.59;98685.72;4860256;28;102288;-83
2022/05/14 00:29:37;;;;;;;;;1.00;1.00;;;;;22.20;45.46;98679.38;4855372;28;104071;-82
2022/05/14 00:32:05;;;;;;;;;1.00;1.00;;;;;22.18;45.58;98678.84;4862389;28;102403;-81
2022/05/14 00:34:32;;;;;;;;;0.67;0.67;;;;;22.18;45.94;98684.34;4862379;28;102410;-83
2022/05/14 00:37:00;;;;;;;;;2.00;2.00;;;;;22.17;45.59;98674.44;4850078;28;102391;-83
2022/05/14 00:39:27;;;;;;;;;1.00;1.00;;;;;22.17;45.63;98681.88;4854217;28;104151;-83
2022/05/14 00:41:54;;;;;;;;;1.67;1.67;;;;;22.16;45.47;98681.03;4854900;28;104314;-83
2022/05/14 00:44:21;;;;;;;;;3.00;2.00;;;;;22.17;45.65;98681.88;4857599;28;103323;-83
2022/05/14 00:46:54;;;;;;;;;1.33;1.33;;;;;22.17;45.39;98687.38;4851700;28;102306;-84
2022/05/14 00:49:22;;;;;;;;;2.00;2.00;;;;;22.15;45.94;98676.63;4844412;28;104156;-83
2022/05/14 00:51:49;;;;;;;;;2.00;2.00;;;;;22.14;45.70;98686.00;4826326;28;102260;-83
2022/05/14 00:54:19;;;;;;;;;1.33;1.33;;;;;22.13;45.83;98689.84;4853093;28;102227;-83
2022/05/14 00:56:48;;;;;;;;;1.00;1.00;;;;;22.12;45.35;98693.69;4838875;28;102169;-83
2022/05/14 00:59:20;;;;;;;;;1.67;1.67;;;;;22.10;45.49;98693.16;4841349;28;104048;-83
2022/05/14 01:01:48;;;;;;;;;1.67;1.67;;;;;22.11;45.37;98697.56;4850453;28;102429;-83
2022/05/14 01:04:16;;;;;;;;;2.00;2.00;;;;;22.11;45.52;98694.78;4830628;28;102169;-83
2022/05/14 01:06:57;;;;;;;;;2.00;2.00;;;;;22.11;45.32;98688.50;4836352;28;102148;-82
2022/05/14 01:09:24;;;;;;;;;1.67;1.67;;;;;22.11;45.75;98689.28;4833866;28;104049;-83
2022/05/14 01:11:51;;;;;;;;;2.00;1.67;;;;;22.10;45.33;98686.81;4834983;28;102176;-83
2022/05/14 01:14:20;;;;;;;;;1.67;1.67;;;;;22.10;45.35;98684.91;4841270;28;103380;-83
2022/05/14 01:16:47;;;;;;;;;1.67;1.67;;;;;22.09;45.33;98688.75;4861988;28;103117;-83
2022/05/14 01:19:14;;;;;;;;;1.00;1.00;;;;;22.08;45.67;98692.59;4861769;28;104369;-83
2022/05/14 01:22:18;;;;;;;;;1.67;1.67;;;;;22.08;45.51;98689.84;4854234;28;102054;-83
2022/05/14 01:28:16;;;;;;;;;2.67;1.67;;;;;22.05;45.62;98704.16;4825395;28;102811;-83
2022/05/14 01:30:51;;;;;;;;;2.00;2.00;;;;;22.04;45.40;98704.44;4860117;28;104153;-83
2022/05/14 01:33:19;;;;;;;;;1.67;1.67;;;;;22.04;45.34;98705.25;4833561;28;102261;-83
2022/05/14 01:35:46;;;;;;;;;1.67;1.67;;;;;22.03;45.55;98706.34;4856424;28;102365;-83
2022/05/14 01:38:13;;;;;;;;;0.50;0.50;;;;;22.03;45.37;98700.84;4850972;28;102409;-83
2022/05/14 01:40:40;;;;;;;;;2.00;2.00;;;;;22.03;45.65;98711.88;4834541;28;104029;-83
2022/05/14 01:43:08;;;;;;;;;3.33;2.33;;;;;22.03;45.71;98706.34;4862215;28;102649;-82
2022/05/14 01:45:35;;;;;;;;;1.67;1.67;;;;;22.01;45.65;98716.84;4848612;28;102197;-83
2022/05/14 01:48:02;;;;;;;;;0.67;0.67;;;;;22.01;45.35;98716.00;4839272;28;102440;-83
2022/05/14 01:50:29;;;;;;;;;1.67;1.67;;;;;21.98;45.36;98711.84;4853657;28;104234;-83
2022/05/14 01:52:57;;;;;;;;;2.00;2.00;;;;;21.96;45.69;98713.22;4853490;28;102445;-83
2022/05/14 01:55:24;;;;;;;;;1.67;1.67;;;;;21.99;45.63;98705.25;4845825;28;102215;-83
2022/05/14 01:57:51;;;;;;;;;1.67;1.67;;;;;21.96;45.30;98697.53;4863900;28;102372;-83
2022/05/14 02:00:18;;;;;;;;;2.00;2.00;;;;;21.96;45.91;98700.28;4864354;28;104487;-83
2022/05/14 02:02:45;;;;;;;;;1.67;1.67;;;;;21.97;45.57;98703.88;4846158;28;102061;-83
2022/05/14 02:05:12;;;;;;;;;2.00;1.67;;;;;21.96;45.27;98711.31;4858422;28;102328;-82
2022/05/14 02:07:41;;;;;;;;;1.67;1.67;;;;;21.95;45.71;98704.16;4860837;28;102481;-83
2022/05/14 02:10:08;;;;;;;;;0.67;0.67;;;;;21.96;45.54;98707.72;4841463;28;104029;-82
2022/05/14 02:12:36;;;;;;;;;2.00;2.00;;;;;21.95;45.27;98709.66;4848416;28;104236;-81
2022/05/14 02:15:03;;;;;;;;;2.00;2.00;;;;;21.94;45.59;98702.47;4862304;28;102551;-83
2022/05/14 02:17:30;;;;;;;;;2.33;2.33;;;;;21.93;45.59;98700.81;4860640;28;102502;-83
2022/05/14 02:19:57;;;;;;;;;2.67;2.67;;;;;21.93;45.57;98694.50;4857628;28;104421;-83
2022/05/14 02:22:24;;;;;;;;;2.00;2.00;;;;;21.92;45.47;98696.41;4844120;28;102322;-83
2022/05/14 02:24:51;;;;;;;;;2.33;1.67;;;;;21.91;45.14;98700.25;4854705;28;104405;-83
2022/05/14 02:27:18;;;;;;;;;2.00;2.00;;;;;21.91;45.56;98693.91;4858620;28;102695;-83
2022/05/14 02:29:51;;;;;;;;;2.67;1.67;;;;;21.91;45.79;98704.94;4857737;28;104093;-83
2022/05/14 02:32:18;;;;;;;;;0.33;0.33;;;;;21.90;45.61;98706.03;4855923;28;102701;-83
2022/05/14 02:34:46;;;;;;;;;3.00;3.00;;;;;21.90;45.51;98704.09;4865179;28;102259;-83
2022/05/14 02:37:14;;;;;;;;;2.00;2.00;;;;;21.89;45.29;98702.44;4844093;28;102233;-83
2022/05/14 02:39:41;;;;;;;;;2.00;2.00;;;;;21.89;45.20;98704.34;4859289;28;109984;-84
2022/05/14 02:42:08;;;;;;;;;3.00;2.67;;;;;21.86;45.76;98697.47;4858857;28;102453;-83
2022/05/14 02:44:35;;;;;;;;;3.00;3.00;;;;;21.87;45.21;98690.88;4857353;28;102375;-82
2022/05/14 02:47:02;;;;;;;;;2.00;2.00;;;;;21.86;45.53;98697.47;4853358;28;102310;-82
2022/05/14 02:49:29;;;;;;;;;1.67;1.67;;;;;21.85;45.09;98698.56;4840638;28;104144;-83
2022/05/14 02:51:57;;;;;;;;;2.33;2.33;;;;;21.84;45.22;98704.38;4853140;28;105057;-83
2022/05/14 02:54:24;;;;;;;;;3.00;2.00;;;;;21.84;45.57;98707.94;4855204;28;102241;-83
2022/05/14 02:56:51;;;;;;;;;2.67;2.67;;;;;21.83;45.25;98709.06;4852631;28;102582;-82
2022/05/14 02:59:18;;;;;;;;;3.33;3.00;;;;;21.82;45.23;98704.63;4852154;28;103737;-83
2022/05/14 03:01:48;;;;;;;;;2.67;2.00;;;;;21.83;45.53;98703.53;4859896;28;102062;-82
2022/05/14 03:04:23;;;;;;;;;2.00;2.00;;;;;21.83;45.26;98711.81;4855710;28;102422;-82
2022/05/14 03:06:51;;;;;;;;;1.67;1.67;;;;;21.82;45.50;98707.38;4840195;28;102318;-82
2022/05/14 03:09:18;;;;;;;;;1.67;1.67;;;;;21.82;45.58;98704.63;4859078;28;104066;-82
2022/05/14 03:11:45;;;;;;;;;3.00;2.67;;;;;21.80;45.58;98713.16;4857815;28;102357;-83
2022/05/14 03:14:12;;;;;;;;;2.67;2.67;;;;;21.80;45.29;98709.56;4839708;28;104006;-82
2022/05/14 03:16:40;;;;;;;;;2.00;2.00;;;;;21.79;45.17;98710.69;4858453;28;102374;-82
2022/05/14 03:19:07;;;;;;;;;2.00;2.00;;;;;21.77;45.36;98719.22;4839614;28;104432;-82
2022/05/14 03:21:35;;;;;;;;;3.33;3.00;;;;;21.76;45.46;98713.97;4863039;28;102410;-83
2022/05/14 03:24:02;;;;;;;;;3.00;2.00;;;;;21.76;45.49;98713.97;4853942;28;102521;-82
2022/05/14 03:26:30;;;;;;;;;2.67;2.67;;;;;21.77;45.29;98716.47;4836043;28;102190;-83
2022/05/14 03:28:57;;;;;;;;;3.00;3.00;;;;;21.76;45.63;98711.22;4853658;28;104093;-82
2022/05/14 03:31:23;;;;;;;;;3.33;3.33;;;;;21.78;45.44;98717.28;4858603;28;103114;-83
2022/05/14 03:33:51;;;;;;;;;3.00;3.00;;;;;21.78;45.18;98720.03;4858411;28;102418;-82
2022/05/14 03:36:18;;;;;;;;;3.00;3.00;;;;;21.77;45.04;98712.88;4862935;28;102305;-82
2022/05/14 03:38:45;;;;;;;;;3.00;3.00;;;;;21.76;45.35;98717.53;4858115;28;104105;-82
2022/05/14 03:41:11;;;;;;;;;3.33;2.67;;;;;21.75;45.51;98712.31;4859727;28;102167;-82
2022/05/14 03:43:39;;;;;;;;;2.67;2.00;;;;;21.74;45.07;98724.44;4859178;28;101818;-82
2022/05/14 03:46:06;;;;;;;;;2.67;2.67;;;;;21.75;45.13;98726.06;4862498;28;102517;-83
2022/05/14 03:48:33;;;;;;;;;3.00;3.00;;;;;21.73;45.24;98733.78;4865350;28;108919;-83
2022/05/14 03:51:00;;;;;;;;;3.00;2.67;;;;;21.72;45.57;98726.63;4855491;28;103393;-82
2022/05/14 03:53:27;;;;;;;;;2.33;2.00;;;;;21.73;45.54;98720.84;4830617;28;102600;-82
2022/05/14 03:55:54;;;;;;;;;3.00;3.00;;;;;21.73;45.21;98731.03;4863255;28;102574;-82
2022/05/14 03:58:21;;;;;;;;;3.00;3.00;;;;;21.72;45.48;98721.13;4859102;28;103541;-82
2022/05/14 04:00:48;;;;;;;;;3.00;3.00;;;;;21.69;45.59;98727.16;4854183;28;103335;-82
2022/05/14 04:03:15;;;;;;;;;2.67;2.67;;;;;21.72;45.53;98726.63;4859336;28;102564;-82
2022/05/14 04:05:42;;;;;;;;;3.00;3.00;;;;;21.73;45.44;98733.78;4866593;28;102675;-83
2022/05/14 04:08:09;;;;;;;;;3.33;3.00;;;;;21.72;45.23;98727.44;4860374;28;104025;-82
2022/05/14 04:10:36;;;;;;;;;3.33;2.67;;;;;21.72;45.05;98732.13;4865319;28;102274;-83
2022/05/14 04:13:03;;;;;;;;;1.67;1.67;;;;;21.71;45.07;98736.78;4858787;28;102294;-83
2022/05/14 04:15:30;;;;;;;;;3.67;3.67;;;;;21.72;45.15;98743.13;4855915;28;102318;-82
2022/05/14 04:17:57;;;;;;;;;3.00;3.00;;;;;21.71;45.16;98735.97;4865233;28;103776;-82
2022/05/14 04:20:24;;;;;;;;;3.67;3.67;;;;;21.71;45.41;98741.47;4860908;28;102738;-83
2022/05/14 04:22:51;;;;;;;;;3.00;3.00;;;;;21.71;45.49;98742.28;4855436;28;102578;-82
2022/05/14 04:25:18;;;;;;;;;3.00;3.00;;;;;21.70;45.38;98748.09;4862251;28;102415;-82
2022/05/14 04:27:46;;;;;;;;;2.00;2.00;;;;;21.72;45.10;98754.13;4861802;28;104298;-82
2022/05/14 04:30:14;;;;;;;;;3.00;3.00;;;;;21.70;44.83;98750.84;4857878;28;102456;-82
2022/05/14 04:32:41;;;;;;;;;3.00;3.00;;;;;21.72;44.86;98756.88;4856257;28;102482;-82
2022/05/14 04:35:09;;;;;;;;;3.00;3.00;;;;;21.72;45.39;98759.66;4861037;28;102662;-81
2022/05/14 04:37:37;;;;;;;;;1.67;1.67;;;;;21.71;45.28;98761.56;4863437;28;104103;-82
2022/05/14 04:40:08;;;;;;;;;4.33;3.00;;;;;21.71;44.90;98753.31;4856575;28;102132;-82
2022/05/14 04:42:38;;;;;;;;;2.67;2.67;;;;;21.73;44.92;98758.56;4861719;28;102602;-82
2022/05/14 04:45:05;;;;;;;;;3.67;3.67;;;;;21.72;45.17;98756.88;4859057;28;102608;-83
2022/05/14 04:47:33;;;;;;;;;4.00;3.00;;;;;21.72;44.83;98754.13;4842535;28;110363;-82
2022/05/14 04:49:59;;;;;;;;;2.67;2.67;;;;;21.71;45.02;98755.22;4860717;28;102830;-82
2022/05/14 04:52:26;;;;;;;;;3.00;3.00;;;;;21.70;44.92;98756.34;4858414;28;103700;-82
2022/05/14 04:54:53;;;;;;;;;3.00;3.00;;;;;21.72;45.11;98756.88;4862842;28;102272;-82
2022/05/14 04:57:20;;;;;;;;;2.67;2.00;;;;;21.70;45.25;98759.91;4860943;28;104329;-82
2022/05/14 04:59:47;;;;;;;;;2.67;2.33;;;;;21.70;44.86;98761.84;4861110;28;102419;-82
2022/05/14 05:05:00;;;;;;;;;2.67;2.67;;;;;21.71;44.80;98756.06;4864324;28;102519;-82
2022/05/14 05:07:27;;;;;;;;;2.00;2.00;;;;;21.71;45.24;98752.47;4862857;28;104476;-82
2022/05/14 05:09:54;;;;;;;;;4.00;2.00;;;;;21.71;45.06;98747.81;4861164;28;102520;-82
2022/05/14 05:12:21;;;;;;;;;3.00;3.00;;;;;21.71;44.72;98752.47;4858858;28;102475;-83
2022/05/14 05:14:53;;;;;;;;;3.33;2.67;;;;;21.72;44.84;98748.63;4857243;28;102422;-83
2022/05/14 05:17:20;;;;;;;;;2.33;2.33;;;;;21.71;44.89;98749.72;4860059;28;104125;-82
2022/05/14 05:19:47;;;;;;;;;3.67;3.67;;;;;21.71;44.65;98750.56;4858638;28;102210;-82
2022/05/14 05:22:14;;;;;;;;;2.67;2.67;;;;;21.70;45.06;98748.09;4862278;28;102578;-83
2022/05/14 05:24:41;;;;;;;;;3.67;3.00;;;;;21.70;45.13;98742.59;4855661;28;102190;-82
2022/05/14 05:27:08;;;;;;;;;2.67;2.67;;;;;21.71;45.06;98742.28;4861304;28;104091;-83
2022/05/14 05:29:35;;;;;;;;;3.00;3.00;;;;;21.72;45.16;98743.13;4854698;28;102289;-82
2022/05/14 05:32:02;;;;;;;;;3.67;2.67;;;;;21.71;45.17;98746.97;4860648;28;102565;-82
2022/05/14 05:34:29;;;;;;;;;4.00;3.67;;;;;21.70;45.36;98745.34;4861170;28;104272;-82
2022/05/14 05:36:56;;;;;;;;;2.67;2.33;;;;;21.70;44.98;98745.34;4860358;28;104026;-82
2022/05/14 05:39:23;;;;;;;;;3.00;3.00;;;;;21.69;45.19;98744.50;4862325;28;102614;-82
2022/05/14 05:41:50;;;;;;;;;3.00;3.00;;;;;21.69;44.81;98733.50;4862511;28;102028;-82
2022/05/14 05:44:17;;;;;;;;;2.33;2.00;;;;;21.69;44.81;98736.25;4858496;28;102266;-82
2022/05/14 05:46:44;;;;;;;;;4.00;4.00;;;;;21.66;44.60;98738.69;4861180;28;104395;-83
2022/05/14 05:49:11;;;;;;;;;2.67;2.00;;;;;21.70;44.57;98748.09;4858432;28;102473;-82
2022/05/14 05:51:38;;;;;;;;;3.00;2.67;;;;;21.69;45.18;98749.19;4864770;28;102264;-79
2022/05/14 05:56:57;;;;;;;;;2.67;2.67;;;;;21.67;45.13;98751.38;4855016;28;108922;-82
2022/05/14 05:59:26;;;;;;;;;2.67;2.67;;;;;21.65;45.34;98734.31;4862881;28;102425;-83
2022/05/14 06:01:53;;;;;;;;;3.00;3.00;;;;;21.62;45.47;98729.31;4848878;28;106140;-83
2022/05/14 06:04:21;;;;;;;;;4.33;4.00;;;;;21.63;44.89;98726.31;4857897;28;102667;-82
2022/05/14 06:06:48;;;;;;;;;3.00;3.00;;;;;21.65;44.90;98734.31;4856625;28;104088;-82
2022/05/14 06:09:17;;;;;;;;;3.00;3.00;;;;;21.64;45.07;98730.72;4860309;28;102046;-83
2022/05/14 06:11:44;;;;;;;;;3.00;3.00;;;;;21.66;45.01;98733.19;4858834;28;102193;-83
2022/05/14 06:14:12;;;;;;;;;3.00;3.00;;;;;21.66;45.25;98727.69;4859412;28;102669;-83
2022/05/14 06:16:39;;;;;;;;;2.67;2.67;;;;;21.64;45.34;98727.16;4861139;28;104199;-82
2022/05/14 06:19:06;;;;;;;;;3.50;3.50;;;;;21.65;45.02;98720.53;4856444;28;102091;-83
2022/05/14 06:21:34;;;;;;;;;4.00;3.33;;;;;21.64;44.94;98727.97;4853154;28;102520;-83
2022/05/14 06:24:01;;;;;;;;;3.33;3.33;;;;;21.64;44.96;98716.97;4857544;28;102508;-83
2022/05/14 06:26:28;;;;;;;;;3.33;3.00;;;;;21.67;44.89;98729.34;4848070;28;104060;-83
2022/05/14 06:28:55;;;;;;;;;3.00;3.00;;;;;21.70;44.67;98728.81;4855279;28;102913;-83
2022/05/14 06:31:22;;;;;;;;;3.00;3.00;;;;;21.69;44.59;98732.66;4852656;28;102119;-82
2022/05/14 06:33:49;;;;;;;;;3.00;3.00;;;;;21.70;45.06;98723.31;4858400;28;105345;-82
2022/05/14 06:36:16;;;;;;;;;3.67;3.67;;;;;21.70;45.25;98728.81;4859765;28;104064;-82
2022/05/14 06:38:43;;;;;;;;;3.00;3.00;;;;;21.70;45.12;98728.81;4858751;28;102456;-83
2022/05/14 06:41:11;;;;;;;;;2.67;2.67;;;;;21.69;45.12;98732.66;4859256;28;102366;-82
2022/05/14 06:43:39;;;;;;;;;3.00;2.67;;;;;21.70;44.89;98723.31;4867007;28;102163;-83
2022/05/14 06:46:06;;;;;;;;;3.00;3.00;;;;;21.70;45.06;98728.81;4833992;28;109366;-82
2022/05/14 06:48:32;;;;;;;;;4.00;4.00;;;;;21.71;45.21;98735.97;4854767;28;102410;-83
2022/05/14 06:51:02;;;;;;;;;2.00;2.00;;;;;21.72;44.94;98740.38;4853291;28;102238;-83
2022/05/14 06:53:29;;;;;;;;;2.33;2.33;;;;;21.72;45.05;98734.88;4847339;28;104795;-82
2022/05/14 06:55:57;;;;;;;;;2.67;2.67;;;;;21.71;45.02;98741.47;4862644;28;104302;-82
2022/05/14 06:58:29;;;;;;;;;4.00;3.33;;;;;21.73;45.13;98737.38;4862104;28;102287;-83
2022/05/14 07:00:56;;;;;;;;;3.33;3.00;;;;;21.72;44.85;98745.88;4863999;28;102252;-83
2022/05/14 07:08:54;;;;;;;;;3.00;3.00;;;;;21.72;44.66;98748.63;4856840;28;102184;-83
2022/05/14 07:11:21;;;;;;;;;2.00;2.00;;;;;21.73;45.07;98747.53;4856426;28;102444;-83
2022/05/14 07:13:51;;;;;;;;;4.00;2.00;;;;;21.73;44.87;98751.13;4858196;28;102233;-83
2022/05/14 07:16:17;;;;;;;;;2.67;2.67;;;;;21.73;44.99;98750.28;4859972;28;104254;-83
2022/05/14 07:18:45;;;;;;;;;4.00;4.00;;;;;21.72;44.97;98743.13;4849374;28;102246;-82
2022/05/14 07:21:12;;;;;;;;;3.33;3.00;;;;;21.72;44.73;98754.97;4864112;28;102556;-82
2022/05/14 07:23:39;;;;;;;;;3.00;3.00;;;;;21.73;44.82;98755.81;4865700;28;102214;-83
2022/05/14 07:26:07;;;;;;;;;2.00;2.00;;;;;21.73;45.02;98755.81;4852620;28;109283;-83
2022/05/14 07:28:34;;;;;;;;;2.67;2.67;;;;;21.73;44.75;98759.38;4860360;28;102488;-83
2022/05/14 07:31:01;;;;;;;;;4.33;4.00;;;;;21.74;45.00;98762.97;4852058;28;102529;-83
2022/05/14 07:33:29;;;;;;;;;2.00;2.00;;;;;21.74;44.80;98754.72;4864314;28;102659;-82
2022/05/14 07:35:58;;;;;;;;;1.67;1.67;;;;;21.75;45.07;98764.59;4862013;28;104118;-83
2022/05/14 07:38:25;;;;;;;;;2.67;1.67;;;;;21.73;45.04;98756.63;4857069;28;102433;-83
2022/05/14 07:40:52;;;;;;;;;2.33;2.33;;;;;21.73;44.89;98758.56;4864318;28;102386;-83
2022/05/14 07:43:22;;;;;;;;;4.00;3.00;;;;;21.72;45.09;98754.13;4839382;28;103213;-82
2022/05/14 07:45:50;;;;;;;;;2.33;2.00;;;;;21.73;45.29;98755.81;4860753;28;104206;-82
2022/05/14 07:48:21;;;;;;;;;2.33;1.67;;;;;21.72;44.67;98748.63;4862309;28;102181;-82
2022/05/14 07:50:48;;;;;;;;;3.00;2.33;;;;;21.73;44.81;98751.13;4858245;28;102586;-82
2022/05/14 07:53:15;;;;;;;;;2.00;2.00;;;;;21.75;44.75;98764.59;4858928;28;102622;-82
2022/05/14 07:55:43;;;;;;;;;2.00;2.00;;;;;21.75;45.14;98754.41;4829823;28;104070;-82
2022/05/14 07:58:10;;;;;;;;;3.00;2.67;;;;;21.74;44.83;98747.28;4853222;28;109257;-81
2022/05/14 08:00:37;;;;;;;;;2.67;2.67;;;;;21.75;44.94;98761.84;4842600;28;102150;-82
2022/05/14 08:03:05;;;;;;;;;1.67;1.67;;;;;21.76;44.91;98758.00;4860191;28;102214;-83
2022/05/14 08:05:32;;;;;;;;;3.00;3.00;;;;;21.76;44.55;98758.84;4860794;28;104561;-83
2022/05/14 08:07:59;;;;;;;;;2.67;2.67;;;;;21.77;44.74;98759.66;4862166;28;102400;-83
2022/05/14 08:10:26;;;;;;;;;2.33;2.33;;;;;21.77;44.76;98751.41;4857889;28;102269;-83
2022/05/14 08:12:56;;;;;;;;;2.67;2.67;;;;;21.77;44.78;98755.00;4858582;28;102607;-82
2022/05/14 08:15:24;;;;;;;;;2.00;2.00;;;;;21.77;44.67;98755.00;4859592;28;104627;-83
2022/05/14 08:17:51;;;;;;;;;2.67;2.67;;;;;21.77;44.64;98752.25;4843610;28;102264;-83
2022/05/14 08:20:18;;;;;;;;;3.00;3.00;;;;;21.77;44.79;98743.97;4858461;28;102231;-83
2022/05/14 08:25:31;;;;;;;;;2.00;2.00;;;;;21.78;45.01;98742.06;4856969;28;104407;-83
2022/05/14 08:27:58;;;;;;;;;1.67;1.67;;;;;21.77;44.73;98737.66;4841251;28;102388;-82
2022/05/14 08:30:28;;;;;;;;;2.67;2.00;;;;;21.79;44.76;98738.22;4859995;28;102947;-82
2022/05/14 08:32:55;;;;;;;;;3.00;3.00;;;;;21.78;44.77;98734.63;4863468;28;102536;-83
2022/05/14 08:35:24;;;;;;;;;4.00;3.33;;;;;21.79;45.19;98744.53;4857511;28;104084;-83
2022/05/14 08:37:52;;;;;;;;;0.67;0.67;;;;;21.79;44.95;98747.28;4845817;28;104878;-82
2022/05/14 08:40:28;;;;;;;;;1.67;1.67;;;;;21.79;44.79;98732.72;4859819;28;102176;-82
2022/05/14 08:42:57;;;;;;;;;2.00;2.00;;;;;21.80;44.73;98729.66;4839739;28;102681;-82
2022/05/14 08:45:26;;;;;;;;;2.67;2.67;;;;;21.80;45.17;98728.84;4839120;28;104191;-83
2022/05/14 08:48:16;;;;;;;;;3.00;3.00;;;;;21.80;44.95;98731.59;4839045;28;102651;-82
2022/05/14 08:50:45;;;;;;;;;2.33;2.00;;;;;21.80;44.69;98732.41;4854168;28;102024;-82
2022/05/14 08:53:13;;;;;;;;;2.00;2.00;;;;;21.82;44.91;98729.41;4823864;28;102499;-82
2022/05/14 08:55:49;;;;;;;;;0.67;0.67;;;;;21.80;44.97;98724.16;4864368;28;104326;-83
2022/05/14 08:58:19;;;;;;;;;2.00;2.00;;;;;21.81;44.93;98728.56;4822024;28;102591;-82
2022/05/14 09:00:46;;;;;;;;;1.67;1.67;;;;;21.82;45.14;98732.16;4856239;28;105875;-82
2022/05/14 09:03:13;;;;;;;;;2.00;2.00;;;;;21.83;44.90;98725.56;4852259;28;104167;-82
2022/05/14 09:05:40;;;;;;;;;2.67;2.67;;;;;21.83;44.74;98722.81;4860189;28;104135;-83
2022/05/14 09:08:07;;;;;;;;;1.67;1.67;;;;;21.82;44.99;98721.16;4840253;28;102478;-83
2022/05/14 09:10:38;;;;;;;;;2.00;2.00;;;;;21.83;44.88;98716.47;4859805;28;102399;-83
2022/05/14 09:13:15;;;;;;;;;3.00;3.00;;;;;21.83;45.13;98720.06;4831454;28;102569;-83
2022/05/14 09:15:50;;;;;;;;;1.67;1.67;;;;;21.85;44.83;98728.03;4846606;28;108862;-80
2022/05/14 09:18:41;;;;;;;;;1.67;1.67;;;;;21.85;44.83;98728.03;4859764;28;103010;-83
2022/05/14 09:21:22;;;;;;;;;2.00;2.00;;;;;21.85;45.01;98726.09;4850410;28;103145;-83
2022/05/14 09:23:56;;;;;;;;;1.00;1.00;;;;;21.85;45.00;98717.00;4847351;28;102194;-83
2022/05/14 09:26:32;;;;;;;;;2.00;2.00;;;;;21.86;44.97;98713.16;4841022;28;104215;-83
2022/05/14 09:29:10;;;;;;;;;2.00;2.00;;;;;21.86;45.00;98700.22;4836342;28;102571;-83
2022/05/14 09:31:53;;;;;;;;;2.67;2.00;;;;;21.87;45.21;98714.84;4843414;28;102366;-83
2022/05/14 09:34:20;;;;;;;;;0.67;0.67;;;;;21.87;45.20;98710.16;4828463;28;102150;-82
2022/05/14 09:36:51;;;;;;;;;1.67;1.67;;;;;21.88;44.88;98716.50;4828283;28;103555;-83
2022/05/14 09:39:20;;;;;;;;;3.00;3.00;;;;;21.88;44.64;98713.75;4860702;28;102615;-83
2022/05/14 09:41:57;;;;;;;;;1.67;1.67;;;;;21.88;44.56;98708.22;4853547;28;101983;-82
2022/05/14 09:44:26;;;;;;;;;1.67;1.67;;;;;21.88;45.13;98706.31;4840321;28;103613;-83
2022/05/14 09:47:09;;;;;;;;;2.00;2.00;;;;;21.88;44.99;98714.56;4826942;28;103963;-83
2022/05/14 09:49:42;;;;;;;;;2.00;2.00;;;;;21.89;44.97;98707.09;4852167;28;102189;-83
2022/05/14 09:52:10;;;;;;;;;1.67;1.67;;;;;21.90;44.91;98709.59;4860796;28;102526;-83
2022/05/14 09:54:43;;;;;;;;;2.00;2.00;;;;;21.89;44.89;98709.88;4835678;28;102721;-83
2022/05/14 09:57:34;;;;;;;;;2.00;1.67;;;;;21.86;44.64;98708.50;4825960;28;108904;-83
2022/05/14 10:00:05;;;;;;;;;2.33;2.33;;;;;21.90;45.12;98703.25;4852885;28;102360;-83
2022/05/14 10:02:45;;;;;;;;;1.00;1.00;;;;;21.91;44.72;98692.00;4852538;28;102207;-83
2022/05/14 10:05:35;;;;;;;;;1.67;1.67;;;;;21.91;44.80;98705.75;4856419;28;102281;-83
2022/05/14 10:08:09;;;;;;;;;3.00;3.00;;;;;21.92;44.80;98701.09;4846454;28;108675;-83
2022/05/14 10:10:39;;;;;;;;;2.00;2.00;;;;;21.90;45.04;98684.81;4860338;28;103279;-83
2022/05/14 10:13:22;;;;;;;;;2.00;2.00;;;;;21.90;44.79;98690.34;4853468;28;101962;-83
2022/05/14 10:16:11;;;;;;;;;2.67;2.67;;;;;21.91;44.99;98691.16;4854963;28;103441;-82
2022/05/14 10:18:57;;;;;;;;;2.67;2.00;;;;;21.91;44.76;98677.41;4839809;28;104162;-83
2022/05/14 10:21:53;;;;;;;;;2.00;2.00;;;;;21.92;44.78;98682.63;4858003;28;102818;-82
2022/05/14 10:27:46;;;;;;;;;2.00;2.00;;;;;21.92;44.93;98677.13;4854589;28;102162;-83
2022/05/14 10:30:22;;;;;;;;;3.00;3.00;;;;;21.93;44.70;98678.00;4847758;28;109052;-83
2022/05/14 10:32:54;;;;;;;;;1.67;1.67;;;;;21.93;44.70;98672.50;4833266;28;102157;-82
2022/05/14 10:35:30;;;;;;;;;2.00;2.00;;;;;21.94;44.98;98668.63;4852951;28;102450;-82
2022/05/14 10:38:27;;;;;;;;;2.33;2.33;;;;;21.94;44.98;98665.84;4836974;28;102170;-82
2022/05/14 10:40:56;;;;;;;;;1.67;1.67;;;;;21.93;44.57;98667.78;4834370;28;108696;-82
2022/05/14 10:43:40;;;;;;;;;1.67;1.67;;;;;21.94;44.61;98669.44;4838675;28;102109;-83
2022/05/14 10:46:09;;;;;;;;;1.00;1.00;;;;;21.95;45.13;98668.34;4853100;28;101781;-83
2022/05/14 10:48:56;;;;;;;;;1.00;1.00;;;;;21.96;44.38;98663.66;4854632;28;106008;-83
2022/05/14 10:51:30;;;;;;;;;1.33;1.33;;;;;21.96;44.91;98650.72;4830787;28;109344;-83
2022/05/14 10:54:00;;;;;;;;;1.67;1.67;;;;;21.97;44.61;98646.88;4833194;28;102388;-83
2022/05/14 10:56:29;;;;;;;;;1.67;1.33;;;;;21.97;44.67;98657.06;4853006;28;102246;-82
2022/05/14 10:58:58;;;;;;;;;2.67;1.67;;;;;21.97;44.92;98652.41;4835921;28;102200;-82
2022/05/14 11:01:43;;;;;;;;;1.33;0.67;;;;;21.96;44.92;98650.72;4849950;28;103841;-82
2022/05/14 11:04:40;;;;;;;;;2.33;2.00;;;;;21.98;44.90;98648.53;4845448;28;102328;-83
2022/05/14 11:07:09;;;;;;;;;0.67;0.67;;;;;21.96;44.89;98645.22;4827637;28;102777;-83
2022/05/14 11:09:40;;;;;;;;;1.33;1.33;;;;;21.98;44.90;98654.03;4847400;28;102070;-82
2022/05/14 11:12:18;;;;;;;;;2.00;2.00;;;;;21.97;44.47;98643.31;4837150;28;104090;-83
2022/05/14 11:14:52;;;;;;;;;1.00;1.00;;;;;21.98;44.72;98645.75;4853013;28;102457;-83
2022/05/14 11:17:27;;;;;;;;;1.00;1.00;;;;;21.98;44.52;98637.50;4823167;28;102168;-82
2022/05/14 11:20:04;;;;;;;;;2.33;2.33;;;;;21.99;44.78;98641.09;4854572;28;102394;-82
2022/05/14 11:22:41;;;;;;;;;0.67;0.67;;;;;21.99;44.93;98628.16;4854819;28;104012;-83
2022/05/14 11:25:12;;;;;;;;;1.67;1.67;;;;;21.99;44.82;98639.16;4825310;28;102198;-83
2022/05/14 11:27:40;;;;;;;;;1.00;1.00;;;;;22.00;44.88;98634.50;4851537;28;102268;-82
2022/05/14 11:30:09;;;;;;;;;2.67;1.67;;;;;22.00;44.88;98629.81;4856603;28;109414;-83
2022/05/14 11:32:48;;;;;;;;;2.00;2.00;;;;;22.01;45.04;98631.47;4843609;28;104032;-83
2022/05/14 11:35:15;;;;;;;;;1.67;1.67;;;;;22.01;44.87;98636.97;4855663;28;102374;-83
2022/05/14 11:37:45;;;;;;;;;1.00;1.00;;;;;22.02;44.66;98616.56;4838752;28;102408;-83
2022/05/14 11:40:16;;;;;;;;;1.00;1.00;;;;;22.03;44.78;98629.25;4803027;28;102718;-83
2022/05/14 11:42:44;;;;;;;;;2.00;2.00;;;;;22.03;44.84;98632.00;4847229;28;109121;-82
2022/05/14 11:45:16;;;;;;;;;1.00;1.00;;;;;22.03;44.56;98634.75;4844918;28;102350;-83
2022/05/14 11:48:20;;;;;;;;;2.00;2.00;;;;;22.04;44.59;98630.91;4853846;28;104005;-82
2022/05/14 11:50:53;;;;;;;;;0.67;0.67;;;;;22.05;44.90;98638.06;4850395;28;102161;-83
2022/05/14 11:53:48;;;;;;;;;1.67;1.67;;;;;22.06;44.51;98633.41;4855529;28;108753;-82
2022/05/14 11:56:39;;;;;;;;;1.00;1.00;;;;;22.06;44.83;98636.97;4849926;28;103297;-83
2022/05/14 11:59:22;;;;;;;;;2.00;2.00;;;;;22.06;44.77;98639.75;4828969;28;102518;-83
2022/05/14 12:01:48;;;;;;;;;0.67;0.67;;;;;22.07;44.52;98635.84;4846793;28;104499;-81